Terminal Aerodrome Forecast
Issued by NWS Wilmington, OH

Current Version | Previous Version | Graphics & Text | Print | Product List | Glossary On
Versions: 1 2 3 4 5 6 7 8 9 10 11 12 13 14 15 16 17 18 19 20 21 22 23 24 25 26 27
000
FTUS41 KILN 171000 AAA
TAFILN
TAF AMD
KILN 171021Z 1710/1806 19008KT P6SM BKN006
     FM171300 21010KT P6SM SCT030 BKN250
     FM171500 23016G26KT P6SM SCT040
     FM172300 26013KT P6SM OVC030=

USA.gov is the U.S. government's official web portal to all federal, state and local government web resources and services.